sensor_id;sensor_type;location;lat;lon;timestamp;temperature;humidity
4530;DHT22;2277;51.626;7.516;2022-08-01T00:01:39;22.10;99.90
4530;DHT22;2277;51.626;7.516;2022-08-01T00:04:04;22.10;99.90
4530;DHT22;2277;51.626;7.516;2022-08-01T00:06:30;22.10;99.90
4530;DHT22;2277;51.626;7.516;2022-08-01T00:08:56;22.10;99.90
4530;DHT22;2277;51.626;7.516;2022-08-01T00:11:21;22.10;99.90
4530;DHT22;2277;51.626;7.516;2022-08-01T00:13:47;22.00;99.90
4530;DHT22;2277;51.626;7.516;2022-08-01T00:16:14;22.00;99.90
4530;DHT22;2277;51.626;7.516;2022-08-01T00:18:41;22.10;99.90
4530;DHT22;2277;51.626;7.516;2022-08-01T00:21:07;22.00;99.90
4530;DHT22;2277;51.626;7.516;2022-08-01T00:23:32;22.10;99.90
4530;DHT22;2277;51.626;7.516;2022-08-01T00:25:58;22.10;99.90
4530;DHT22;2277;51.626;7.516;2022-08-01T00:28:24;22.10;99.90
4530;DHT22;2277;51.626;7.516;2022-08-01T00:30:49;22.10;99.90
4530;DHT22;2277;51.626;7.516;2022-08-01T00:33:15;22.10;99.90
4530;DHT22;2277;51.626;7.516;2022-08-01T00:35:40;22.10;99.90
4530;DHT22;2277;51.626;7.516;2022-08-01T00:38:06;22.10;99.90
4530;DHT22;2277;51.626;7.516;2022-08-01T00:40:31;22.10;99.90
4530;DHT22;2277;51.626;7.516;2022-08-01T00:42:57;22.10;99.90
4530;DHT22;2277;51.626;7.516;2022-08-01T00:45:23;22.00;99.90
4530;DHT22;2277;51.626;7.516;2022-08-01T00:47:48;22.00;99.90
4530;DHT22;2277;51.626;7.516;2022-08-01T00:50:14;22.10;99.90
4530;DHT22;2277;51.626;7.516;2022-08-01T00:52:40;22.00;99.90
4530;DHT22;2277;51.626;7.516;2022-08-01T00:55:08;22.10;99.90
4530;DHT22;2277;51.626;7.516;2022-08-01T00:57:35;22.00;99.90
4530;DHT22;2277;51.626;7.516;2022-08-01T01:00:00;22.00;99.90
4530;DHT22;2277;51.626;7.516;2022-08-01T01:02:26;21.90;99.90
4530;DHT22;2277;51.626;7.516;2022-08-01T01:04:51;21.90;99.90
4530;DHT22;2277;51.626;7.516;2022-08-01T01:07:24;21.90;99.90
4530;DHT22;2277;51.626;7.516;2022-08-01T01:10:11;21.90;99.90
4530;DHT22;2277;51.626;7.516;2022-08-01T01:13:16;21.90;99.90
4530;DHT22;2277;51.626;7.516;2022-08-01T01:15:44;21.90;99.90
4530;DHT22;2277;51.626;7.516;2022-08-01T01:18:17;21.90;99.90
4530;DHT22;2277;51.626;7.516;2022-08-01T01:20:53;21.90;99.90
4530;DHT22;2277;51.626;7.516;2022-08-01T01:26:17;21.90;99.90
4530;DHT22;2277;51.626;7.516;2022-08-01T01:29:20;21.80;99.90
4530;DHT22;2277;51.626;7.516;2022-08-01T01:31:54;21.80;99.90
4530;DHT22;2277;51.626;7.516;2022-08-01T01:34:22;21.80;99.90
4530;DHT22;2277;51.626;7.516;2022-08-01T01:36:50;21.80;99.90
4530;DHT22;2277;51.626;7.516;2022-08-01T01:39:18;21.70;99.90
4530;DHT22;2277;51.626;7.516;2022-08-01T01:41:45;21.70;99.90
4530;DHT22;2277;51.626;7.516;2022-08-01T01:44:13;21.70;99.90
4530;DHT22;2277;51.626;7.516;2022-08-01T01:46:40;21.70;99.90
4530;DHT22;2277;51.626;7.516;2022-08-01T01:49:08;21.70;99.90
4530;DHT22;2277;51.626;7.516;2022-08-01T01:51:35;21.70;99.90
4530;DHT22;2277;51.626;7.516;2022-08-01T01:54:02;21.70;99.90
4530;DHT22;2277;51.626;7.516;2022-08-01T01:56:30;21.70;99.90
4530;DHT22;2277;51.626;7.516;2022-08-01T01:58:59;21.70;99.90
4530;DHT22;2277;51.626;7.516;2022-08-01T02:01:28;21.60;99.90
4530;DHT22;2277;51.626;7.516;2022-08-01T02:03:55;21.60;99.90
4530;DHT22;2277;51.626;7.516;2022-08-01T02:06:23;21.50;99.90
4530;DHT22;2277;51.626;7.516;2022-08-01T02:08:50;21.50;99.90
4530;DHT22;2277;51.626;7.516;2022-08-01T02:11:18;21.50;99.90
4530;DHT22;2277;51.626;7.516;2022-08-01T02:13:55;21.50;99.90
4530;DHT22;2277;51.626;7.516;2022-08-01T02:16:24;21.50;99.90
4530;DHT22;2277;51.626;7.516;2022-08-01T02:18:50;21.60;99.90
4530;DHT22;2277;51.626;7.516;2022-08-01T02:21:23;21.60;99.90
4530;DHT22;2277;51.626;7.516;2022-08-01T02:23:51;21.60;99.90
4530;DHT22;2277;51.626;7.516;2022-08-01T02:26:19;21.60;99.90
4530;DHT22;2277;51.626;7.516;2022-08-01T02:28:53;21.60;99.90
4530;DHT22;2277;51.626;7.516;2022-08-01T02:31:21;21.70;99.90
4530;DHT22;2277;51.626;7.516;2022-08-01T02:33:57;21.70;99.90
4530;DHT22;2277;51.626;7.516;2022-08-01T02:36:26;21.60;99.90
4530;DHT22;2277;51.626;7.516;2022-08-01T02:38:54;21.60;99.90
4530;DHT22;2277;51.626;7.516;2022-08-01T02:41:22;21.60;99.90
4530;DHT22;2277;51.626;7.516;2022-08-01T02:43:51;21.60;99.90
4530;DHT22;2277;51.626;7.516;2022-08-01T02:46:22;21.60;99.90
4530;DHT22;2277;51.626;7.516;2022-08-01T02:48:50;21.60;99.90
4530;DHT22;2277;51.626;7.516;2022-08-01T02:51:17;21.60;99.90
4530;DHT22;2277;51.626;7.516;2022-08-01T02:53:45;21.60;99.90
4530;DHT22;2277;51.626;7.516;2022-08-01T02:56:13;21.60;99.90
4530;DHT22;2277;51.626;7.516;2022-08-01T02:58:39;21.60;99.90
4530;DHT22;2277;51.626;7.516;2022-08-01T03:01:06;21.60;99.90
4530;DHT22;2277;51.626;7.516;2022-08-01T03:03:33;21.60;99.90
4530;DHT22;2277;51.626;7.516;2022-08-01T03:05:59;21.60;99.90
4530;DHT22;2277;51.626;7.516;2022-08-01T03:08:25;21.60;99.90
4530;DHT22;2277;51.626;7.516;2022-08-01T03:10:54;21.60;99.90
4530;DHT22;2277;51.626;7.516;2022-08-01T03:13:21;21.60;99.90
4530;DHT22;2277;51.626;7.516;2022-08-01T03:15:48;21.70;99.90
4530;DHT22;2277;51.626;7.516;2022-08-01T03:18:15;21.70;99.90
4530;DHT22;2277;51.626;7.516;2022-08-01T03:20:42;21.60;99.90
4530;DHT22;2277;51.626;7.516;2022-08-01T03:23:10;21.70;99.90
4530;DHT22;2277;51.626;7.516;2022-08-01T03:25:39;21.60;99.90
4530;DHT22;2277;51.626;7.516;2022-08-01T03:28:07;21.60;99.90
4530;DHT22;2277;51.626;7.516;2022-08-01T03:30:34;21.60;99.90
4530;DHT22;2277;51.626;7.516;2022-08-01T03:33:02;21.60;99.90
4530;DHT22;2277;51.626;7.516;2022-08-01T03:35:32;21.60;99.90
4530;DHT22;2277;51.626;7.516;2022-08-01T03:38:00;21.60;99.90
4530;DHT22;2277;51.626;7.516;2022-08-01T03:40:52;21.50;99.90
4530;DHT22;2277;51.626;7.516;2022-08-01T03:43:34;21.60;99.90
4530;DHT22;2277;51.626;7.516;2022-08-01T03:46:05;21.50;99.90
4530;DHT22;2277;51.626;7.516;2022-08-01T03:48:36;21.60;99.90
4530;DHT22;2277;51.626;7.516;2022-08-01T03:51:04;21.50;99.90
4530;DHT22;2277;51.626;7.516;2022-08-01T03:53:32;21.50;99.90
4530;DHT22;2277;51.626;7.516;2022-08-01T03:56:00;21.50;99.90
4530;DHT22;2277;51.626;7.516;2022-08-01T03:58:28;21.50;99.90
4530;DHT22;2277;51.626;7.516;2022-08-01T04:00:54;21.60;99.90
4530;DHT22;2277;51.626;7.516;2022-08-01T04:03:20;21.50;99.90
4530;DHT22;2277;51.626;7.516;2022-08-01T04:05:46;21.50;99.90
4530;DHT22;2277;51.626;7.516;2022-08-01T04:08:12;21.50;99.90
4530;DHT22;2277;51.626;7.516;2022-08-01T04:10:38;21.50;99.90
4530;DHT22;2277;51.626;7.516;2022-08-01T04:13:03;21.40;99.90
4530;DHT22;2277;51.626;7.516;2022-08-01T04:15:29;21.30;99.90
4530;DHT22;2277;51.626;7.516;2022-08-01T04:17:54;21.30;99.90
4530;DHT22;2277;51.626;7.516;2022-08-01T04:20:20;21.30;99.90
4530;DHT22;2277;51.626;7.516;2022-08-01T04:22:46;21.30;99.90
4530;DHT22;2277;51.626;7.516;2022-08-01T04:25:24;21.30;99.90
4530;DHT22;2277;51.626;7.516;2022-08-01T04:27:52;21.30;99.90
4530;DHT22;2277;51.626;7.516;2022-08-01T04:30:22;21.30;99.90
4530;DHT22;2277;51.626;7.516;2022-08-01T04:32:52;21.30;99.90
4530;DHT22;2277;51.626;7.516;2022-08-01T04:35:19;21.30;99.90
4530;DHT22;2277;51.626;7.516;2022-08-01T04:37:47;21.30;99.90
4530;DHT22;2277;51.626;7.516;2022-08-01T04:40:14;21.30;99.90
4530;DHT22;2277;51.626;7.516;2022-08-01T04:42:41;21.20;99.90
4530;DHT22;2277;51.626;7.516;2022-08-01T04:45:08;21.30;99.90
4530;DHT22;2277;51.626;7.516;2022-08-01T04:47:35;21.20;99.90
4530;DHT22;2277;51.626;7.516;2022-08-01T04:50:07;21.30;99.90
4530;DHT22;2277;51.626;7.516;2022-08-01T04:52:37;21.30;99.90
4530;DHT22;2277;51.626;7.516;2022-08-01T04:55:04;21.30;99.90
4530;DHT22;2277;51.626;7.516;2022-08-01T04:57:35;21.20;99.90
4530;DHT22;2277;51.626;7.516;2022-08-01T05:00:03;21.30;99.90
4530;DHT22;2277;51.626;7.516;2022-08-01T05:02:28;21.30;99.90
4530;DHT22;2277;51.626;7.516;2022-08-01T05:04:55;21.30;99.90
4530;DHT22;2277;51.626;7.516;2022-08-01T05:07:21;21.30;99.90
4530;DHT22;2277;51.626;7.516;2022-08-01T05:09:46;21.30;99.90
4530;DHT22;2277;51.626;7.516;2022-08-01T05:12:12;21.30;99.90
4530;DHT22;2277;51.626;7.516;2022-08-01T05:14:38;21.30;99.90
4530;DHT22;2277;51.626;7.516;2022-08-01T05:17:05;21.30;99.90
4530;DHT22;2277;51.626;7.516;2022-08-01T05:19:33;21.40;99.90
4530;DHT22;2277;51.626;7.516;2022-08-01T05:22:03;21.30;99.90
4530;DHT22;2277;51.626;7.516;2022-08-01T05:24:34;21.30;99.90
4530;DHT22;2277;51.626;7.516;2022-08-01T05:27:00;21.30;99.90
4530;DHT22;2277;51.626;7.516;2022-08-01T05:29:26;21.30;99.90
4530;DHT22;2277;51.626;7.516;2022-08-01T05:31:52;21.30;99.90
4530;DHT22;2277;51.626;7.516;2022-08-01T05:34:18;21.30;99.90
4530;DHT22;2277;51.626;7.516;2022-08-01T05:36:44;21.20;99.90
4530;DHT22;2277;51.626;7.516;2022-08-01T05:39:11;21.30;99.90
4530;DHT22;2277;51.626;7.516;2022-08-01T05:41:37;21.30;99.90
4530;DHT22;2277;51.626;7.516;2022-08-01T05:44:05;21.30;99.90
4530;DHT22;2277;51.626;7.516;2022-08-01T05:46:31;21.30;99.90
4530;DHT22;2277;51.626;7.516;2022-08-01T05:48:58;21.30;99.90
4530;DHT22;2277;51.626;7.516;2022-08-01T05:51:24;21.30;99.90
4530;DHT22;2277;51.626;7.516;2022-08-01T05:53:51;21.30;99.90
4530;DHT22;2277;51.626;7.516;2022-08-01T05:56:17;21.30;99.90
4530;DHT22;2277;51.626;7.516;2022-08-01T05:58:43;21.30;99.90
4530;DHT22;2277;51.626;7.516;2022-08-01T06:01:09;21.30;99.90
4530;DHT22;2277;51.626;7.516;2022-08-01T06:03:35;21.40;99.90
4530;DHT22;2277;51.626;7.516;2022-08-01T06:06:01;21.40;99.90
4530;DHT22;2277;51.626;7.516;2022-08-01T06:08:26;21.40;99.90
4530;DHT22;2277;51.626;7.516;2022-08-01T06:10:52;21.40;99.90
4530;DHT22;2277;51.626;7.516;2022-08-01T06:13:18;21.50;99.90
4530;DHT22;2277;51.626;7.516;2022-08-01T06:15:45;21.50;99.90
4530;DHT22;2277;51.626;7.516;2022-08-01T06:18:11;21.50;99.90
4530;DHT22;2277;51.626;7.516;2022-08-01T06:20:37;21.50;99.90
4530;DHT22;2277;51.626;7.516;2022-08-01T06:23:02;21.60;99.90
4530;DHT22;2277;51.626;7.516;2022-08-01T06:25:28;21.60;99.90
4530;DHT22;2277;51.626;7.516;2022-08-01T06:27:54;21.60;99.90
4530;DHT22;2277;51.626;7.516;2022-08-01T06:30:20;21.60;99.90
4530;DHT22;2277;51.626;7.516;2022-08-01T06:32:45;21.60;99.90
4530;DHT22;2277;51.626;7.516;2022-08-01T06:35:12;21.60;99.90
4530;DHT22;2277;51.626;7.516;2022-08-01T06:37:37;21.70;99.90
4530;DHT22;2277;51.626;7.516;2022-08-01T06:40:04;21.70;99.90
4530;DHT22;2277;51.626;7.516;2022-08-01T06:42:30;21.80;99.90
4530;DHT22;2277;51.626;7.516;2022-08-01T06:45:12;21.80;99.90
4530;DHT22;2277;51.626;7.516;2022-08-01T06:47:39;21.80;99.90
4530;DHT22;2277;51.626;7.516;2022-08-01T06:50:06;21.80;99.90
4530;DHT22;2277;51.626;7.516;2022-08-01T06:52:32;21.80;99.90
4530;DHT22;2277;51.626;7.516;2022-08-01T06:54:59;21.80;99.90
4530;DHT22;2277;51.626;7.516;2022-08-01T06:57:25;22.00;99.90
4530;DHT22;2277;51.626;7.516;2022-08-01T06:59:50;22.00;99.90
4530;DHT22;2277;51.626;7.516;2022-08-01T07:02:16;22.00;99.90
4530;DHT22;2277;51.626;7.516;2022-08-01T07:04:42;22.00;99.90
4530;DHT22;2277;51.626;7.516;2022-08-01T07:07:07;22.00;99.90
4530;DHT22;2277;51.626;7.516;2022-08-01T07:09:33;22.00;99.90
4530;DHT22;2277;51.626;7.516;2022-08-01T07:11:59;22.00;99.90
4530;DHT22;2277;51.626;7.516;2022-08-01T07:14:25;22.10;99.90
4530;DHT22;2277;51.626;7.516;2022-08-01T07:16:50;22.10;99.90
4530;DHT22;2277;51.626;7.516;2022-08-01T07:19:17;22.30;99.90
4530;DHT22;2277;51.626;7.516;2022-08-01T07:21:43;22.40;99.90
4530;DHT22;2277;51.626;7.516;2022-08-01T07:24:10;22.50;99.90
4530;DHT22;2277;51.626;7.516;2022-08-01T07:26:37;22.50;99.90
4530;DHT22;2277;51.626;7.516;2022-08-01T07:29:02;22.60;99.90
4530;DHT22;2277;51.626;7.516;2022-08-01T07:31:28;22.60;99.90
4530;DHT22;2277;51.626;7.516;2022-08-01T07:33:54;22.60;99.90
4530;DHT22;2277;51.626;7.516;2022-08-01T07:36:20;22.70;99.90
4530;DHT22;2277;51.626;7.516;2022-08-01T07:38:46;22.70;99.90
4530;DHT22;2277;51.626;7.516;2022-08-01T07:41:12;22.80;99.90
4530;DHT22;2277;51.626;7.516;2022-08-01T07:43:37;22.80;99.90
4530;DHT22;2277;51.626;7.516;2022-08-01T07:46:04;22.90;99.90
4530;DHT22;2277;51.626;7.516;2022-08-01T07:48:30;23.00;99.90
4530;DHT22;2277;51.626;7.516;2022-08-01T07:50:56;23.20;99.90
4530;DHT22;2277;51.626;7.516;2022-08-01T07:53:22;23.30;99.90
4530;DHT22;2277;51.626;7.516;2022-08-01T07:55:48;23.50;99.90
4530;DHT22;2277;51.626;7.516;2022-08-01T07:58:14;23.60;99.90
4530;DHT22;2277;51.626;7.516;2022-08-01T08:00:40;23.80;99.90
4530;DHT22;2277;51.626;7.516;2022-08-01T08:03:06;24.00;99.90
4530;DHT22;2277;51.626;7.516;2022-08-01T08:05:32;24.10;99.90
4530;DHT22;2277;51.626;7.516;2022-08-01T08:08:01;24.10;99.90
4530;DHT22;2277;51.626;7.516;2022-08-01T08:10:27;24.10;99.90
4530;DHT22;2277;51.626;7.516;2022-08-01T08:12:52;24.20;99.90
4530;DHT22;2277;51.626;7.516;2022-08-01T08:15:18;24.20;99.90
4530;DHT22;2277;51.626;7.516;2022-08-01T08:17:43;24.20;99.90
4530;DHT22;2277;51.626;7.516;2022-08-01T08:20:09;24.20;99.90
4530;DHT22;2277;51.626;7.516;2022-08-01T08:22:35;24.20;99.90
4530;DHT22;2277;51.626;7.516;2022-08-01T08:25:01;24.20;99.90
4530;DHT22;2277;51.626;7.516;2022-08-01T08:27:26;24.20;99.90
4530;DHT22;2277;51.626;7.516;2022-08-01T08:29:52;24.10;99.90
4530;DHT22;2277;51.626;7.516;2022-08-01T08:32:18;24.10;99.90
4530;DHT22;2277;51.626;7.516;2022-08-01T08:34:43;24.10;99.90
4530;DHT22;2277;51.626;7.516;2022-08-01T08:37:09;24.10;99.90
4530;DHT22;2277;51.626;7.516;2022-08-01T08:39:35;24.10;99.90
4530;DHT22;2277;51.626;7.516;2022-08-01T08:42:04;24.20;99.90
4530;DHT22;2277;51.626;7.516;2022-08-01T08:44:31;24.20;99.90
4530;DHT22;2277;51.626;7.516;2022-08-01T08:46:58;24.20;99.90
4530;DHT22;2277;51.626;7.516;2022-08-01T08:49:28;24.20;99.90
4530;DHT22;2277;51.626;7.516;2022-08-01T08:51:58;24.30;99.90
4530;DHT22;2277;51.626;7.516;2022-08-01T08:54:25;24.30;99.90
4530;DHT22;2277;51.626;7.516;2022-08-01T08:56:52;24.40;99.90
4530;DHT22;2277;51.626;7.516;2022-08-01T08:59:19;24.60;99.90
4530;DHT22;2277;51.626;7.516;2022-08-01T09:01:46;24.60;99.90
4530;DHT22;2277;51.626;7.516;2022-08-01T09:04:12;24.70;99.90
4530;DHT22;2277;51.626;7.516;2022-08-01T09:06:38;24.70;99.90
4530;DHT22;2277;51.626;7.516;2022-08-01T09:09:06;24.90;99.90
4530;DHT22;2277;51.626;7.516;2022-08-01T09:11:32;25.00;99.90
4530;DHT22;2277;51.626;7.516;2022-08-01T09:14:08;25.10;99.90
4530;DHT22;2277;51.626;7.516;2022-08-01T09:16:35;25.10;99.90
4530;DHT22;2277;51.626;7.516;2022-08-01T09:19:20;25.10;99.90
4530;DHT22;2277;51.626;7.516;2022-08-01T09:22:02;25.20;99.90
4530;DHT22;2277;51.626;7.516;2022-08-01T09:24:29;25.20;99.90
4530;DHT22;2277;51.626;7.516;2022-08-01T09:26:56;25.20;99.90
4530;DHT22;2277;51.626;7.516;2022-08-01T09:29:24;25.30;99.90
4530;DHT22;2277;51.626;7.516;2022-08-01T09:31:50;25.30;99.90
4530;DHT22;2277;51.626;7.516;2022-08-01T09:34:24;25.30;99.90
4530;DHT22;2277;51.626;7.516;2022-08-01T09:36:52;25.30;99.90
4530;DHT22;2277;51.626;7.516;2022-08-01T09:39:40;25.30;99.90
4530;DHT22;2277;51.626;7.516;2022-08-01T09:42:25;25.50;99.90
4530;DHT22;2277;51.626;7.516;2022-08-01T09:44:52;25.50;99.90
4530;DHT22;2277;51.626;7.516;2022-08-01T09:47:19;25.80;99.90
4530;DHT22;2277;51.626;7.516;2022-08-01T09:49:53;26.00;99.90
4530;DHT22;2277;51.626;7.516;2022-08-01T09:52:24;26.10;99.90
4530;DHT22;2277;51.626;7.516;2022-08-01T09:54:59;26.10;99.90
4530;DHT22;2277;51.626;7.516;2022-08-01T09:57:26;26.20;99.90
4530;DHT22;2277;51.626;7.516;2022-08-01T09:59:54;26.50;99.90
4530;DHT22;2277;51.626;7.516;2022-08-01T10:02:37;26.70;99.90
4530;DHT22;2277;51.626;7.516;2022-08-01T10:05:06;26.70;99.90
4530;DHT22;2277;51.626;7.516;2022-08-01T10:07:32;26.60;99.90
4530;DHT22;2277;51.626;7.516;2022-08-01T10:10:14;26.70;99.90
4530;DHT22;2277;51.626;7.516;2022-08-01T10:12:41;26.70;99.90
4530;DHT22;2277;51.626;7.516;2022-08-01T10:15:08;26.70;99.90
4530;DHT22;2277;51.626;7.516;2022-08-01T10:17:34;26.80;99.90
4530;DHT22;2277;51.626;7.516;2022-08-01T10:20:02;26.90;99.90
4530;DHT22;2277;51.626;7.516;2022-08-01T10:22:30;26.90;99.90
4530;DHT22;2277;51.626;7.516;2022-08-01T10:24:57;26.90;99.90
4530;DHT22;2277;51.626;7.516;2022-08-01T10:27:26;27.10;99.90
4530;DHT22;2277;51.626;7.516;2022-08-01T10:30:00;27.20;99.90
4530;DHT22;2277;51.626;7.516;2022-08-01T10:32:30;27.30;99.90
4530;DHT22;2277;51.626;7.516;2022-08-01T10:34:56;27.40;99.90
4530;DHT22;2277;51.626;7.516;2022-08-01T10:37:25;27.40;99.90
4530;DHT22;2277;51.626;7.516;2022-08-01T10:39:54;27.40;99.90
4530;DHT22;2277;51.626;7.516;2022-08-01T10:42:21;27.50;99.90
4530;DHT22;2277;51.626;7.516;2022-08-01T10:44:47;27.70;99.90
4530;DHT22;2277;51.626;7.516;2022-08-01T10:47:18;27.80;99.90
4530;DHT22;2277;51.626;7.516;2022-08-01T10:50:03;27.70;99.90
4530;DHT22;2277;51.626;7.516;2022-08-01T10:52:29;27.50;99.90
4530;DHT22;2277;51.626;7.516;2022-08-01T10:55:08;27.50;99.90
4530;DHT22;2277;51.626;7.516;2022-08-01T10:57:45;27.40;99.90
4530;DHT22;2277;51.626;7.516;2022-08-01T11:00:19;27.30;99.90
4530;DHT22;2277;51.626;7.516;2022-08-01T11:02:58;27.10;99.90
4530;DHT22;2277;51.626;7.516;2022-08-01T11:05:26;27.10;99.90
4530;DHT22;2277;51.626;7.516;2022-08-01T11:07:54;26.90;99.90
4530;DHT22;2277;51.626;7.516;2022-08-01T11:10:33;27.00;99.90
4530;DHT22;2277;51.626;7.516;2022-08-01T11:13:00;27.00;99.90
4530;DHT22;2277;51.626;7.516;2022-08-01T11:15:28;27.30;99.90
4530;DHT22;2277;51.626;7.516;2022-08-01T11:17:55;27.50;99.90
4530;DHT22;2277;51.626;7.516;2022-08-01T11:20:25;27.60;99.90
4530;DHT22;2277;51.626;7.516;2022-08-01T11:26:12;27.90;99.90
4530;DHT22;2277;51.626;7.516;2022-08-01T11:33:19;28.50;99.90
4530;DHT22;2277;51.626;7.516;2022-08-01T11:39:18;28.70;99.90
4530;DHT22;2277;51.626;7.516;2022-08-01T11:41:27;28.70;99.90
4530;DHT22;2277;51.626;7.516;2022-08-01T11:52:09;29.10;99.90
4530;DHT22;2277;51.626;7.516;2022-08-01T11:57:23;29.60;99.90
4530;DHT22;2277;51.626;7.516;2022-08-01T11:59:54;29.60;99.90
4530;DHT22;2277;51.626;7.516;2022-08-01T12:02:28;29.80;99.90
4530;DHT22;2277;51.626;7.516;2022-08-01T12:05:01;29.90;99.90
4530;DHT22;2277;51.626;7.516;2022-08-01T12:07:29;30.00;99.90
4530;DHT22;2277;51.626;7.516;2022-08-01T12:10:07;30.20;99.90
4530;DHT22;2277;51.626;7.516;2022-08-01T12:12:35;30.30;99.90
4530;DHT22;2277;51.626;7.516;2022-08-01T12:15:04;30.30;99.90
4530;DHT22;2277;51.626;7.516;2022-08-01T12:17:36;30.30;99.90
4530;DHT22;2277;51.626;7.516;2022-08-01T12:20:04;30.40;99.90
4530;DHT22;2277;51.626;7.516;2022-08-01T12:22:30;30.30;99.90
4530;DHT22;2277;51.626;7.516;2022-08-01T12:25:07;30.20;99.90
4530;DHT22;2277;51.626;7.516;2022-08-01T12:27:35;30.20;99.90
4530;DHT22;2277;51.626;7.516;2022-08-01T12:30:01;30.00;99.90
4530;DHT22;2277;51.626;7.516;2022-08-01T12:32:31;29.90;99.90
4530;DHT22;2277;51.626;7.516;2022-08-01T12:35:05;29.80;99.90
4530;DHT22;2277;51.626;7.516;2022-08-01T12:37:36;29.90;99.90
4530;DHT22;2277;51.626;7.516;2022-08-01T12:40:10;29.80;99.90
4530;DHT22;2277;51.626;7.516;2022-08-01T12:42:40;29.80;99.90
4530;DHT22;2277;51.626;7.516;2022-08-01T12:45:08;29.70;99.90
4530;DHT22;2277;51.626;7.516;2022-08-01T12:47:36;29.70;99.90
4530;DHT22;2277;51.626;7.516;2022-08-01T12:50:03;29.70;99.90
4530;DHT22;2277;51.626;7.516;2022-08-01T12:52:30;29.80;99.90
4530;DHT22;2277;51.626;7.516;2022-08-01T12:55:19;30.00;99.90
4530;DHT22;2277;51.626;7.516;2022-08-01T12:57:48;30.20;99.90
4530;DHT22;2277;51.626;7.516;2022-08-01T13:00:26;30.20;99.90
4530;DHT22;2277;51.626;7.516;2022-08-01T13:05:44;30.30;99.90
4530;DHT22;2277;51.626;7.516;2022-08-01T13:08:15;30.20;99.90
4530;DHT22;2277;51.626;7.516;2022-08-01T13:10:41;30.20;99.90
4530;DHT22;2277;51.626;7.516;2022-08-01T13:13:08;30.40;99.90
4530;DHT22;2277;51.626;7.516;2022-08-01T13:15:36;30.50;99.90
4530;DHT22;2277;51.626;7.516;2022-08-01T13:18:23;30.60;99.90
4530;DHT22;2277;51.626;7.516;2022-08-01T13:20:49;30.80;99.90
4530;DHT22;2277;51.626;7.516;2022-08-01T13:23:16;30.90;99.90
4530;DHT22;2277;51.626;7.516;2022-08-01T13:25:53;30.90;99.90
4530;DHT22;2277;51.626;7.516;2022-08-01T13:28:23;30.90;99.90
4530;DHT22;2277;51.626;7.516;2022-08-01T13:31:06;30.70;99.90
4530;DHT22;2277;51.626;7.516;2022-08-01T13:33:43;30.50;99.90
4530;DHT22;2277;51.626;7.516;2022-08-01T13:36:09;30.30;99.90
4530;DHT22;2277;51.626;7.516;2022-08-01T13:38:34;30.20;99.90
4530;DHT22;2277;51.626;7.516;2022-08-01T13:41:18;30.30;99.90
4530;DHT22;2277;51.626;7.516;2022-08-01T13:43:44;30.20;99.90
4530;DHT22;2277;51.626;7.516;2022-08-01T13:46:10;30.20;99.90
4530;DHT22;2277;51.626;7.516;2022-08-01T13:48:35;30.00;99.90
4530;DHT22;2277;51.626;7.516;2022-08-01T13:51:01;29.80;99.90
4530;DHT22;2277;51.626;7.516;2022-08-01T13:53:27;29.80;99.90
4530;DHT22;2277;51.626;7.516;2022-08-01T13:55:53;29.80;99.90
4530;DHT22;2277;51.626;7.516;2022-08-01T13:58:19;29.90;99.90
4530;DHT22;2277;51.626;7.516;2022-08-01T14:00:44;29.90;99.90
4530;DHT22;2277;51.626;7.516;2022-08-01T14:03:11;29.90;99.90
4530;DHT22;2277;51.626;7.516;2022-08-01T14:05:37;29.80;99.90
4530;DHT22;2277;51.626;7.516;2022-08-01T14:08:03;29.80;99.90
4530;DHT22;2277;51.626;7.516;2022-08-01T14:10:29;29.70;99.90
4530;DHT22;2277;51.626;7.516;2022-08-01T14:12:58;29.70;99.90
4530;DHT22;2277;51.626;7.516;2022-08-01T14:15:24;29.60;99.90
4530;DHT22;2277;51.626;7.516;2022-08-01T14:17:50;29.50;99.90
4530;DHT22;2277;51.626;7.516;2022-08-01T14:20:16;29.50;99.90
4530;DHT22;2277;51.626;7.516;2022-08-01T14:22:45;29.40;99.90
4530;DHT22;2277;51.626;7.516;2022-08-01T14:25:11;29.30;99.90
4530;DHT22;2277;51.626;7.516;2022-08-01T14:27:36;29.20;99.90
4530;DHT22;2277;51.626;7.516;2022-08-01T14:30:05;29.10;99.90
4530;DHT22;2277;51.626;7.516;2022-08-01T14:32:31;29.00;99.90
4530;DHT22;2277;51.626;7.516;2022-08-01T14:34:59;29.00;99.90
4530;DHT22;2277;51.626;7.516;2022-08-01T14:37:24;29.10;99.90
4530;DHT22;2277;51.626;7.516;2022-08-01T14:39:50;29.30;99.90
4530;DHT22;2277;51.626;7.516;2022-08-01T14:42:16;29.20;99.90
4530;DHT22;2277;51.626;7.516;2022-08-01T14:44:41;29.30;99.90
4530;DHT22;2277;51.626;7.516;2022-08-01T14:47:07;29.30;99.90
4530;DHT22;2277;51.626;7.516;2022-08-01T14:49:33;29.20;99.90
4530;DHT22;2277;51.626;7.516;2022-08-01T14:51:58;29.30;99.90
4530;DHT22;2277;51.626;7.516;2022-08-01T14:54:24;29.30;99.90
4530;DHT22;2277;51.626;7.516;2022-08-01T14:56:49;29.30;99.90
4530;DHT22;2277;51.626;7.516;2022-08-01T14:59:17;29.30;99.90
4530;DHT22;2277;51.626;7.516;2022-08-01T15:01:43;29.30;99.90
4530;DHT22;2277;51.626;7.516;2022-08-01T15:04:08;29.40;99.90
4530;DHT22;2277;51.626;7.516;2022-08-01T15:06:34;29.50;99.90
4530;DHT22;2277;51.626;7.516;2022-08-01T15:08:59;29.50;99.90
4530;DHT22;2277;51.626;7.516;2022-08-01T15:11:25;29.30;99.90
4530;DHT22;2277;51.626;7.516;2022-08-01T15:13:51;29.30;99.90
4530;DHT22;2277;51.626;7.516;2022-08-01T15:16:36;29.20;99.90
4530;DHT22;2277;51.626;7.516;2022-08-01T15:19:03;29.20;99.90
4530;DHT22;2277;51.626;7.516;2022-08-01T15:21:28;29.30;99.90
4530;DHT22;2277;51.626;7.516;2022-08-01T15:23:54;29.20;99.90
4530;DHT22;2277;51.626;7.516;2022-08-01T15:26:20;29.10;99.90
4530;DHT22;2277;51.626;7.516;2022-08-01T15:28:45;29.00;99.90
4530;DHT22;2277;51.626;7.516;2022-08-01T15:31:11;29.00;99.90
4530;DHT22;2277;51.626;7.516;2022-08-01T15:33:37;28.90;99.90
4530;DHT22;2277;51.626;7.516;2022-08-01T15:36:03;28.70;99.90
4530;DHT22;2277;51.626;7.516;2022-08-01T15:38:29;28.70;99.90
4530;DHT22;2277;51.626;7.516;2022-08-01T15:40:55;28.70;99.90
4530;DHT22;2277;51.626;7.516;2022-08-01T15:43:20;28.60;99.90
4530;DHT22;2277;51.626;7.516;2022-08-01T15:45:46;28.50;99.90
4530;DHT22;2277;51.626;7.516;2022-08-01T15:48:11;28.50;99.90
4530;DHT22;2277;51.626;7.516;2022-08-01T15:50:37;28.40;99.90
4530;DHT22;2277;51.626;7.516;2022-08-01T15:53:03;28.40;99.90
4530;DHT22;2277;51.626;7.516;2022-08-01T15:55:29;28.40;99.90
4530;DHT22;2277;51.626;7.516;2022-08-01T15:57:55;28.30;99.90
4530;DHT22;2277;51.626;7.516;2022-08-01T16:00:21;28.30;99.90
4530;DHT22;2277;51.626;7.516;2022-08-01T16:02:46;28.30;99.90
4530;DHT22;2277;51.626;7.516;2022-08-01T16:05:12;28.30;99.90
4530;DHT22;2277;51.626;7.516;2022-08-01T16:07:38;28.30;99.90
4530;DHT22;2277;51.626;7.516;2022-08-01T16:10:04;28.30;99.90
4530;DHT22;2277;51.626;7.516;2022-08-01T16:12:30;28.30;99.90
4530;DHT22;2277;51.626;7.516;2022-08-01T16:14:56;28.30;99.90
4530;DHT22;2277;51.626;7.516;2022-08-01T16:17:21;28.30;99.90
4530;DHT22;2277;51.626;7.516;2022-08-01T16:19:47;28.30;99.90
4530;DHT22;2277;51.626;7.516;2022-08-01T16:22:15;28.20;99.90
4530;DHT22;2277;51.626;7.516;2022-08-01T16:24:40;28.20;99.90
4530;DHT22;2277;51.626;7.516;2022-08-01T16:27:06;28.30;99.90
4530;DHT22;2277;51.626;7.516;2022-08-01T16:29:32;28.30;99.90
4530;DHT22;2277;51.626;7.516;2022-08-01T16:31:59;28.30;99.90
4530;DHT22;2277;51.626;7.516;2022-08-01T16:34:24;28.20;99.90
4530;DHT22;2277;51.626;7.516;2022-08-01T16:36:50;28.20;99.90